createdAt,value
2023-11-18T00:02:17.197Z,43.40
2023-11-18T00:04:44.417Z,42.67
2023-11-18T00:07:11.601Z,46.67
2023-11-18T00:09:38.324Z,53.60
2023-11-18T00:12:05.557Z,58.20
2023-11-18T00:14:33.075Z,50.80
2023-11-18T00:17:00.388Z,59.73
2023-11-18T00:19:27.728Z,58.67
2023-11-18T00:21:54.880Z,60.93
2023-11-18T00:24:22.310Z,56.70
2023-11-18T00:26:49.141Z,63.37
2023-11-18T00:29:16.314Z,66.80
2023-11-18T00:31:43.542Z,72.17
2023-11-18T00:34:12.115Z,79.13
2023-11-18T00:36:39.258Z,80.83
2023-11-18T00:39:06.426Z,87.93
2023-11-18T00:41:33.529Z,60.87
2023-11-18T00:44:00.283Z,62.33
2023-11-18T00:46:27.570Z,111.23
2023-11-18T00:48:54.714Z,124.77
2023-11-18T00:51:21.406Z,56.90
2023-11-18T00:53:48.127Z,86.80
2023-11-18T00:56:19.171Z,113.17
2023-11-18T00:58:46.545Z,190.67
2023-11-18T01:01:13.776Z,77.83
2023-11-18T01:03:40.949Z,199.33
2023-11-18T01:06:08.221Z,155.40
2023-11-18T01:08:35.805Z,243.77
2023-11-18T01:11:03.297Z,96.93
2023-11-18T01:13:30.426Z,124.33
2023-11-18T01:15:57.564Z,87.63
2023-11-18T01:18:24.501Z,127.07
2023-11-18T01:20:52.194Z,193.17
2023-11-18T01:23:19.305Z,101.53
2023-11-18T01:25:46.017Z,100.53
2023-11-18T01:28:13.156Z,70.17
2023-11-18T01:30:40.240Z,60.77
2023-11-18T01:33:07.121Z,81.37
2023-11-18T01:35:33.913Z,80.60
2023-11-18T01:38:01.125Z,62.37
2023-11-18T01:40:27.872Z,88.33
2023-11-18T01:42:55.762Z,95.07
2023-11-18T01:45:22.917Z,68.33
2023-11-18T01:47:50.190Z,79.87
2023-11-18T01:50:18.533Z,79.10
2023-11-18T01:52:47.168Z,102.17
2023-11-18T01:55:14.646Z,98.33
2023-11-18T01:57:44.785Z,111.77
2023-11-18T02:00:13.189Z,98.93
2023-11-18T02:02:41.036Z,90.40
2023-11-18T02:05:08.732Z,96.10
2023-11-18T02:07:38.268Z,103.67
2023-11-18T02:10:09.998Z,106.70
2023-11-18T02:12:59.100Z,106.07
2023-11-18T02:15:27.548Z,97.70
2023-11-18T02:17:56.101Z,108.00
2023-11-18T02:20:24.741Z,95.33
2023-11-18T02:22:52.610Z,92.33
2023-11-18T02:25:20.002Z,102.40
2023-11-18T02:27:47.257Z,111.90
2023-11-18T02:30:17.824Z,91.87
2023-11-18T02:32:57.282Z,101.60
2023-11-18T02:35:42.301Z,100.23
2023-11-18T02:38:11.552Z,90.97
2023-11-18T02:40:45.018Z,109.67
2023-11-18T02:43:12.565Z,91.67
2023-11-18T02:45:42.411Z,106.03
2023-11-18T02:48:09.989Z,108.30
2023-11-18T02:50:37.421Z,104.97
2023-11-18T02:53:04.537Z,97.60
2023-11-18T02:55:31.842Z,90.80
2023-11-18T02:57:58.899Z,102.17
2023-11-18T03:00:25.638Z,108.73
2023-11-18T03:02:53.746Z,114.07
2023-11-18T03:05:21.818Z,111.00
2023-11-18T03:07:51.410Z,94.97
2023-11-18T03:10:24.206Z,105.83
2023-11-18T03:12:55.894Z,116.17
2023-11-18T03:15:24.288Z,110.43
2023-11-18T03:17:51.939Z,112.77
2023-11-18T03:20:24.166Z,119.93
2023-11-18T03:22:52.345Z,121.17
2023-11-18T03:25:23.618Z,125.63
2023-11-18T03:27:50.506Z,124.37
2023-11-18T03:30:18.109Z,121.67
2023-11-18T03:32:46.475Z,125.73
2023-11-18T03:35:13.699Z,131.27
2023-11-18T03:37:45.081Z,117.30
2023-11-18T03:40:15.098Z,128.70
2023-11-18T03:42:47.275Z,126.83
2023-11-18T03:45:16.179Z,126.37
2023-11-18T03:47:43.001Z,130.33
2023-11-18T03:50:10.339Z,122.03
2023-11-18T03:52:39.005Z,123.77
2023-11-18T03:55:06.353Z,115.63
2023-11-18T03:57:33.153Z,117.97
2023-11-18T03:59:59.840Z,123.93
2023-11-18T04:02:26.924Z,122.40
2023-11-18T04:04:54.372Z,118.40
2023-11-18T04:07:22.904Z,116.47
2023-11-18T04:09:50.044Z,137.60
2023-11-18T04:12:17.442Z,127.97
2023-11-18T04:14:44.573Z,109.27
2023-11-18T04:17:11.759Z,89.07
2023-11-18T04:19:40.073Z,83.87
2023-11-18T04:22:07.064Z,95.30
2023-11-18T04:24:36.147Z,102.07
2023-11-18T04:27:03.487Z,106.30
2023-11-18T04:29:30.223Z,98.93
2023-11-18T04:31:57.140Z,96.10
2023-11-18T04:34:25.966Z,94.80
2023-11-18T04:36:53.138Z,84.17
2023-11-18T04:39:21.735Z,79.93
2023-11-18T04:41:48.937Z,81.13
2023-11-18T04:44:17.520Z,67.90
2023-11-18T04:46:46.080Z,73.73
2023-11-18T04:49:12.906Z,77.63
2023-11-18T04:51:39.659Z,80.63
2023-11-18T04:54:08.879Z,79.73
2023-11-18T04:56:38.944Z,68.07
2023-11-18T04:59:06.276Z,74.83
2023-11-18T05:01:34.275Z,77.07
2023-11-18T05:04:01.639Z,70.93
2023-11-18T05:06:28.761Z,74.13
2023-11-18T05:08:56.062Z,71.77
2023-11-18T05:11:22.909Z,72.30
2023-11-18T05:13:50.367Z,74.50
2023-11-18T05:16:17.161Z,79.30
2023-11-18T05:18:44.913Z,80.77
2023-11-18T05:21:12.287Z,69.43
2023-11-18T05:23:39.562Z,74.50
2023-11-18T05:26:06.688Z,69.73
2023-11-18T05:28:34.149Z,62.33
2023-11-18T05:31:03.322Z,58.80
2023-11-18T05:33:31.239Z,73.60
2023-11-18T05:35:58.374Z,72.77
2023-11-18T05:38:28.915Z,68.10
2023-11-18T05:41:00.476Z,70.57
2023-11-18T05:43:31.082Z,76.67
2023-11-18T05:46:21.887Z,70.80
2023-11-18T05:48:49.890Z,77.73
2023-11-18T05:51:21.778Z,80.17
2023-11-18T05:53:48.618Z,83.63
2023-11-18T05:56:19.318Z,81.03
2023-11-18T05:58:46.761Z,82.23
2023-11-18T06:01:14.312Z,101.20
2023-11-18T06:03:43.016Z,85.03
2023-11-18T06:06:12.349Z,258.20
2023-11-18T06:08:42.580Z,67.57
2023-11-18T06:11:16.956Z,155.13
2023-11-18T06:13:47.907Z,147.17
2023-11-18T06:16:22.327Z,72.70
2023-11-18T06:18:50.973Z,157.07
2023-11-18T06:21:25.386Z,179.70
2023-11-18T06:23:52.631Z,100.80
2023-11-18T06:26:19.518Z,185.30
2023-11-18T06:28:47.132Z,179.27
2023-11-18T06:31:15.305Z,147.67
2023-11-18T06:33:46.945Z,126.70
2023-11-18T06:36:19.550Z,155.80
2023-11-18T06:38:47.334Z,119.63
2023-11-18T06:41:16.402Z,112.67
2023-11-18T06:43:58.315Z,126.13
2023-11-18T06:46:32.880Z,147.37
2023-11-18T06:49:00.205Z,90.17
2023-11-18T06:51:29.162Z,136.93
2023-11-18T06:53:56.887Z,143.63
2023-11-18T06:56:27.796Z,102.33
2023-11-18T06:58:55.565Z,134.17
2023-11-18T07:01:22.711Z,71.53
2023-11-18T07:03:54.295Z,68.90
2023-11-18T07:06:23.181Z,106.50
2023-11-18T07:08:50.553Z,154.00
2023-11-18T07:11:18.006Z,115.50
2023-11-18T07:13:49.179Z,108.63
2023-11-18T07:16:16.428Z,85.97
2023-11-18T07:18:43.835Z,89.70
2023-11-18T07:21:10.627Z,107.40
2023-11-18T07:23:37.511Z,86.43
2023-11-18T07:26:07.793Z,125.27
2023-11-18T07:28:34.985Z,62.73
2023-11-18T07:31:05.870Z,61.53
2023-11-18T07:33:33.690Z,48.63
2023-11-18T07:36:01.013Z,57.67
2023-11-18T07:38:28.481Z,53.70
2023-11-18T07:40:57.762Z,54.97
2023-11-18T07:43:25.233Z,54.40
2023-11-18T07:45:54.183Z,59.53
2023-11-18T07:48:21.854Z,76.00
2023-11-18T07:50:49.055Z,50.30
2023-11-18T07:53:15.935Z,40.17
2023-11-18T07:55:43.506Z,50.13
2023-11-18T07:58:14.141Z,44.13
2023-11-18T08:00:42.046Z,45.00
2023-11-18T08:03:12.903Z,52.07
2023-11-18T08:05:44.866Z,89.50
2023-11-18T08:08:12.864Z,45.90
2023-11-18T08:10:40.772Z,54.13
2023-11-18T08:13:11.916Z,51.07
2023-11-18T08:15:43.727Z,41.73
2023-11-18T08:18:13.530Z,44.90
2023-11-18T08:20:40.761Z,46.10
2023-11-18T08:23:07.999Z,52.73
2023-11-18T08:25:37.068Z,57.43
2023-11-18T08:28:08.214Z,48.33
2023-11-18T08:30:41.050Z,39.27
2023-11-18T08:33:10.656Z,46.07
2023-11-18T08:35:38.339Z,43.70
2023-11-18T08:38:08.568Z,45.07
2023-11-18T08:40:37.262Z,47.90
2023-11-18T08:43:06.498Z,49.73
2023-11-18T08:45:34.283Z,48.47
2023-11-18T08:48:09.533Z,46.33
2023-11-18T08:50:37.598Z,44.93
2023-11-18T08:53:10.726Z,47.80
2023-11-18T08:55:43.763Z,42.13
2023-11-18T08:58:28.901Z,45.93
2023-11-18T09:01:07.290Z,36.40
2023-11-18T09:03:44.084Z,45.23
2023-11-18T09:06:27.043Z,47.20
2023-11-18T09:08:55.120Z,53.23
2023-11-18T09:11:30.240Z,51.77
2023-11-18T09:14:01.651Z,46.87
2023-11-18T09:16:30.824Z,50.87
2023-11-18T09:19:00.688Z,49.60
2023-11-18T09:21:30.574Z,45.23
2023-11-18T09:23:57.832Z,47.83
2023-11-18T09:26:26.956Z,54.20
2023-11-18T09:28:54.148Z,46.70
2023-11-18T09:31:22.751Z,41.53
2023-11-18T09:33:53.902Z,48.60
2023-11-18T09:36:22.750Z,51.77
2023-11-18T09:38:50.660Z,57.40
2023-11-18T09:41:18.001Z,50.03
2023-11-18T09:43:49.532Z,51.63
2023-11-18T09:46:31.673Z,52.33
2023-11-18T09:49:15.810Z,51.30
2023-11-18T09:51:48.153Z,48.83
2023-11-18T09:54:34.072Z,54.17
2023-11-18T09:57:15.391Z,48.83
2023-11-18T10:00:27.584Z,45.30
2023-11-18T10:02:58.311Z,55.70
2023-11-18T10:05:28.089Z,43.30
2023-11-18T10:07:55.743Z,48.27
2023-11-18T10:10:22.561Z,62.73
2023-11-18T10:12:54.039Z,52.67
2023-11-18T10:15:26.221Z,36.73
2023-11-18T10:18:09.817Z,26.53
2023-11-18T10:20:48.793Z,22.13
2023-11-18T10:23:23.025Z,23.93
2023-11-18T10:25:50.989Z,19.33
2023-11-18T10:28:30.761Z,25.60
2023-11-18T10:31:05.138Z,20.47
2023-11-18T10:33:45.175Z,20.40
2023-11-18T10:36:24.382Z,19.37
2023-11-18T10:38:52.601Z,15.77
2023-11-18T10:41:20.310Z,16.60
2023-11-18T10:43:49.221Z,17.27
2023-11-18T10:46:17.757Z,16.83
2023-11-18T10:48:45.497Z,21.73
2023-11-18T10:51:13.722Z,23.40
2023-11-18T10:53:54.130Z,16.13
2023-11-18T10:56:27.645Z,15.43
2023-11-18T10:59:08.951Z,16.43
2023-11-18T11:01:45.722Z,16.03
2023-11-18T11:04:13.257Z,17.13
2023-11-18T11:06:47.405Z,22.27
2023-11-18T11:09:18.272Z,17.23
2023-11-18T11:11:56.026Z,16.97
2023-11-18T11:14:36.489Z,15.23
2023-11-18T11:17:17.850Z,19.17
2023-11-18T11:20:17.988Z,18.70
2023-11-18T11:23:09.700Z,19.70
2023-11-18T11:25:54.080Z,19.70
2023-11-18T11:28:24.297Z,15.90
2023-11-18T11:31:04.998Z,22.30
2023-11-18T11:33:46.805Z,17.97
2023-11-18T11:36:25.049Z,18.57
2023-11-18T11:38:54.078Z,23.10
2023-11-18T11:41:27.656Z,18.80
2023-11-18T11:43:56.356Z,19.00
2023-11-18T11:46:24.837Z,18.10
2023-11-18T11:48:54.412Z,23.67
2023-11-18T11:51:27.603Z,22.33
2023-11-18T11:54:09.011Z,18.30
2023-11-18T11:56:50.497Z,21.73
2023-11-18T11:59:17.618Z,19.37
2023-11-18T12:01:48.395Z,18.47
2023-11-18T12:04:30.196Z,20.00
2023-11-18T12:07:05.981Z,15.50
2023-11-18T12:09:39.776Z,17.97
2023-11-18T12:12:13.616Z,15.30
2023-11-18T12:15:01.672Z,20.33
2023-11-18T12:17:33.780Z,20.33
2023-11-18T12:20:01.440Z,18.33
2023-11-18T12:22:31.489Z,28.80
2023-11-18T12:24:59.201Z,18.57
2023-11-18T12:27:41.524Z,18.10
2023-11-18T12:30:17.118Z,17.80
2023-11-18T12:33:06.939Z,19.23
2023-11-18T12:35:42.147Z,20.10
2023-11-18T12:38:46.682Z,21.90
2023-11-18T12:41:28.830Z,20.33
2023-11-18T12:44:32.599Z,25.50
2023-11-18T12:47:22.578Z,20.37
2023-11-18T12:49:56.219Z,21.50
2023-11-18T12:52:24.636Z,19.60
2023-11-18T12:54:59.523Z,24.00
2023-11-18T12:57:32.923Z,18.60
2023-11-18T13:00:01.786Z,19.63
2023-11-18T13:02:30.020Z,19.07
2023-11-18T13:04:58.844Z,21.47
2023-11-18T13:07:26.061Z,21.03
2023-11-18T13:09:55.517Z,26.83
2023-11-18T13:12:25.014Z,23.10
2023-11-18T13:14:52.689Z,24.80
2023-11-18T13:17:19.695Z,22.03
2023-11-18T13:19:48.507Z,20.07
2023-11-18T13:22:20.036Z,21.87
2023-11-18T13:24:47.225Z,18.63
2023-11-18T13:27:17.846Z,21.43
2023-11-18T13:29:51.535Z,23.53
2023-11-18T13:32:24.033Z,17.23
2023-11-18T13:34:52.870Z,20.97
2023-11-18T13:37:23.148Z,18.23
2023-11-18T13:39:56.713Z,21.57
2023-11-18T13:42:25.362Z,20.73
2023-11-18T13:44:54.112Z,20.63
2023-11-18T13:47:21.490Z,22.63
2023-11-18T13:49:51.597Z,19.90
2023-11-18T13:52:19.902Z,23.93
2023-11-18T13:54:49.030Z,18.60
2023-11-18T13:57:16.467Z,19.43
2023-11-18T13:59:45.738Z,23.13
2023-11-18T14:02:13.229Z,18.73
2023-11-18T14:04:41.104Z,15.67
2023-11-18T14:07:10.428Z,19.17
2023-11-18T14:09:41.145Z,14.50
2023-11-18T14:12:09.410Z,18.40
2023-11-18T14:14:36.785Z,20.00
2023-11-18T14:17:03.786Z,17.93
2023-11-18T14:19:30.565Z,17.33
2023-11-18T14:21:57.505Z,16.07
2023-11-18T14:24:28.560Z,20.90
2023-11-18T14:26:55.807Z,15.13
2023-11-18T14:29:25.009Z,19.77
2023-11-18T14:31:53.656Z,16.57
2023-11-18T14:34:20.919Z,17.50
2023-11-18T14:36:50.023Z,16.77
2023-11-18T14:39:19.349Z,22.10
2023-11-18T14:41:50.129Z,17.30
2023-11-18T14:44:18.700Z,18.37
2023-11-18T14:46:46.420Z,24.43
2023-11-18T14:49:13.252Z,17.60
2023-11-18T14:51:41.239Z,19.80
2023-11-18T14:54:08.178Z,14.80
2023-11-18T14:56:36.272Z,13.70
2023-11-18T14:59:06.475Z,17.23
2023-11-18T15:01:33.638Z,11.13
2023-11-18T15:04:01.099Z,16.20
2023-11-18T15:06:28.809Z,18.03
2023-11-18T15:08:58.328Z,17.17
2023-11-18T15:11:26.066Z,14.40
2023-11-18T15:13:57.558Z,17.23
2023-11-18T15:16:24.907Z,19.57
2023-11-18T15:18:53.839Z,22.13
2023-11-18T15:21:21.411Z,14.87
2023-11-18T15:23:49.465Z,21.23
2023-11-18T15:26:17.020Z,12.93
2023-11-18T15:28:43.922Z,15.63
2023-11-18T15:31:11.124Z,17.67
2023-11-18T15:33:38.572Z,17.20
2023-11-18T15:36:08.427Z,17.77
2023-11-18T15:38:36.724Z,17.73
2023-11-18T15:41:03.722Z,16.30
2023-11-18T15:43:30.528Z,16.00
2023-11-18T15:45:59.432Z,12.63
2023-11-18T15:48:30.690Z,17.73
2023-11-18T15:50:59.329Z,14.23
2023-11-18T15:53:29.274Z,20.63
2023-11-18T15:55:56.690Z,19.17
2023-11-18T15:58:27.297Z,19.73
2023-11-18T16:00:54.912Z,21.83
2023-11-18T16:03:22.488Z,13.87
2023-11-18T16:05:50.616Z,17.23
2023-11-18T16:08:17.979Z,13.33
2023-11-18T16:10:46.171Z,15.57
2023-11-18T16:13:13.154Z,16.07
2023-11-18T16:15:40.485Z,15.60
2023-11-18T16:18:07.341Z,12.03
2023-11-18T16:20:34.981Z,11.60
2023-11-18T16:23:06.529Z,14.83
2023-11-18T16:25:36.099Z,11.60
2023-11-18T16:28:04.191Z,12.27
2023-11-18T16:30:33.306Z,9.63
2023-11-18T16:33:05.074Z,10.03
2023-11-18T16:35:32.632Z,10.53
2023-11-18T16:38:01.718Z,8.93
2023-11-18T16:40:29.381Z,7.40
2023-11-18T16:42:57.088Z,8.80
2023-11-18T16:45:25.789Z,5.63
2023-11-18T16:47:54.344Z,9.20
2023-11-18T16:50:24.456Z,12.00
2023-11-18T16:52:52.342Z,9.60
2023-11-18T16:55:21.841Z,6.20
2023-11-18T16:57:51.276Z,10.60
2023-11-18T17:00:24.539Z,10.53
2023-11-18T17:02:59.019Z,9.13
2023-11-18T17:05:31.508Z,9.87
2023-11-18T17:08:00.583Z,14.87
2023-11-18T17:10:28.377Z,9.40
2023-11-18T17:12:55.684Z,10.40
2023-11-18T17:15:22.942Z,10.70
2023-11-18T17:17:55.050Z,9.80
2023-11-18T17:20:22.520Z,13.10
2023-11-18T17:22:49.875Z,10.23
2023-11-18T17:25:17.537Z,13.10
2023-11-18T17:27:45.867Z,11.60
2023-11-18T17:30:14.504Z,7.77
2023-11-18T17:32:42.183Z,13.40
2023-11-18T17:35:10.449Z,13.77
2023-11-18T17:37:37.708Z,9.00
2023-11-18T17:40:04.965Z,10.80
2023-11-18T17:42:32.660Z,11.40
2023-11-18T17:45:05.726Z,14.83
2023-11-18T17:47:36.012Z,13.30
2023-11-18T17:50:03.784Z,13.97
2023-11-18T17:52:30.699Z,13.47
2023-11-18T17:54:58.028Z,11.90
2023-11-18T17:57:24.938Z,13.30
2023-11-18T17:59:54.074Z,11.10
2023-11-18T18:02:21.106Z,13.63
2023-11-18T18:04:48.325Z,12.87
2023-11-18T18:07:15.276Z,12.80
2023-11-18T18:09:46.967Z,8.60
2023-11-18T18:12:14.353Z,9.20
2023-11-18T18:14:41.247Z,15.40
2023-11-18T18:17:08.439Z,10.00
2023-11-18T18:19:35.702Z,15.13
2023-11-18T18:22:04.711Z,14.00
2023-11-18T18:24:34.211Z,11.80
2023-11-18T18:27:01.245Z,8.50
2023-11-18T18:29:28.505Z,9.10
2023-11-18T18:31:55.914Z,13.27
2023-11-18T18:34:23.190Z,11.83
2023-11-18T18:36:49.913Z,13.93
2023-11-18T18:39:18.286Z,7.80
2023-11-18T18:41:45.493Z,10.57
2023-11-18T18:44:12.729Z,10.07
2023-11-18T18:46:40.015Z,13.57
2023-11-18T18:49:07.266Z,13.37
2023-11-18T18:51:34.602Z,11.47
2023-11-18T18:54:02.128Z,13.23
2023-11-18T18:56:30.158Z,12.27
2023-11-18T18:58:57.006Z,12.10
2023-11-18T19:01:24.438Z,13.50
2023-11-18T19:03:51.728Z,9.77
2023-11-18T19:06:19.230Z,11.70
2023-11-18T19:08:46.459Z,13.63
2023-11-18T19:11:13.271Z,8.60
2023-11-18T19:13:40.107Z,17.03
2023-11-18T19:16:08.624Z,11.17
2023-11-18T19:18:35.354Z,13.97
2023-11-18T19:21:02.506Z,11.87
2023-11-18T19:23:29.242Z,8.47
2023-11-18T19:25:56.044Z,8.73
2023-11-18T19:28:23.296Z,9.87
2023-11-18T19:30:51.288Z,13.30
2023-11-18T19:33:18.506Z,9.77
2023-11-18T19:35:45.297Z,10.23
2023-11-18T19:38:12.638Z,7.50
2023-11-18T19:40:39.779Z,8.90
2023-11-18T19:43:06.970Z,10.70
2023-11-18T19:45:34.402Z,8.53
2023-11-18T19:48:01.608Z,8.03
2023-11-18T19:50:28.823Z,6.03
2023-11-18T19:52:56.272Z,7.80
2023-11-18T19:55:23.614Z,6.57
2023-11-18T19:57:51.394Z,6.03
2023-11-18T20:00:19.338Z,9.63
2023-11-18T20:02:46.545Z,6.00
2023-11-18T20:05:14.130Z,5.30
2023-11-18T20:07:41.282Z,5.37
2023-11-18T20:10:09.807Z,7.83
2023-11-18T20:12:37.313Z,10.00
2023-11-18T20:15:05.836Z,7.57
2023-11-18T20:17:33.553Z,4.83
2023-11-18T20:20:01.196Z,5.73
2023-11-18T20:22:28.018Z,6.00
2023-11-18T20:24:55.133Z,3.80
2023-11-18T20:27:21.935Z,5.80
2023-11-18T20:29:48.656Z,8.10
2023-11-18T20:32:16.088Z,9.30
2023-11-18T20:34:43.251Z,4.60
2023-11-18T20:37:10.539Z,5.80
2023-11-18T20:39:38.874Z,6.70
2023-11-18T20:42:06.703Z,5.47
2023-11-18T20:47:04.045Z,4.30
2023-11-18T20:49:30.860Z,7.03
2023-11-18T20:51:58.522Z,6.60
2023-11-18T20:54:26.421Z,4.20
2023-11-18T20:56:53.608Z,5.30
2023-11-18T20:59:20.992Z,3.37
2023-11-18T21:01:47.932Z,7.87
2023-11-18T21:04:16.446Z,7.33
2023-11-18T21:06:43.578Z,3.80
2023-11-18T21:09:10.767Z,7.20
2023-11-18T21:11:37.960Z,4.20
2023-11-18T21:14:04.950Z,3.40
2023-11-18T21:16:32.848Z,6.70
2023-11-18T21:19:02.074Z,16.57
2023-11-18T21:21:30.070Z,5.27
2023-11-18T21:23:57.254Z,3.83
2023-11-18T21:26:25.744Z,3.17
2023-11-18T21:28:53.144Z,9.33
2023-11-18T21:31:19.909Z,4.43
2023-11-18T21:33:47.123Z,3.37
2023-11-18T21:36:18.361Z,3.73
2023-11-18T21:38:53.491Z,7.40
2023-11-18T21:41:21.571Z,5.50
2023-11-18T21:43:48.333Z,5.83
2023-11-18T21:46:16.301Z,7.43
2023-11-18T21:48:43.472Z,7.83
2023-11-18T21:51:12.027Z,4.43
2023-11-18T21:53:42.066Z,6.70
2023-11-18T21:56:08.999Z,7.90
2023-11-18T21:58:36.476Z,6.10
2023-11-18T22:01:06.601Z,4.97
2023-11-18T22:03:35.266Z,4.23
2023-11-18T22:06:02.179Z,4.97
2023-11-18T22:08:28.936Z,3.57
2023-11-18T22:10:56.223Z,4.40
2023-11-18T22:13:23.394Z,4.70
2023-11-18T22:15:51.715Z,5.47
2023-11-18T22:18:18.888Z,6.33
2023-11-18T22:20:46.459Z,6.33
2023-11-18T22:23:16.224Z,5.40
2023-11-18T22:25:49.374Z,6.93
2023-11-18T22:28:16.543Z,3.93
2023-11-18T22:30:43.703Z,3.50
2023-11-18T22:33:10.946Z,7.33
2023-11-18T22:35:38.797Z,6.17
2023-11-18T22:38:05.611Z,8.30
2023-11-18T22:40:32.365Z,4.63
2023-11-18T22:42:59.085Z,7.70
2023-11-18T22:45:26.336Z,3.80
2023-11-18T22:47:54.255Z,5.73
2023-11-18T22:50:24.788Z,3.90
2023-11-18T22:52:54.351Z,5.73
2023-11-18T22:55:21.629Z,5.87
2023-11-18T22:57:48.414Z,4.60
2023-11-18T23:00:32.913Z,5.60
2023-11-18T23:03:00.235Z,5.80
2023-11-18T23:05:27.422Z,6.47
2023-11-18T23:07:57.555Z,3.50
2023-11-18T23:10:28.047Z,3.60
2023-11-18T23:12:56.216Z,4.93
2023-11-18T23:15:25.675Z,4.13
2023-11-18T23:17:53.024Z,7.90
2023-11-18T23:20:22.145Z,5.60
2023-11-18T23:22:50.892Z,6.53
2023-11-18T23:25:17.763Z,5.50
2023-11-18T23:27:45.194Z,10.00
2023-11-18T23:30:14.830Z,6.20
2023-11-18T23:32:42.061Z,8.10
2023-11-18T23:35:10.441Z,14.80
2023-11-18T23:37:37.310Z,16.17
2023-11-18T23:40:10.840Z,13.67
2023-11-18T23:42:40.794Z,5.60
2023-11-18T23:45:08.497Z,4.00
2023-11-18T23:47:35.560Z,4.90
2023-11-18T23:50:02.652Z,7.53
2023-11-18T23:52:30.602Z,7.10
2023-11-18T23:54:57.402Z,8.43
2023-11-18T23:57:24.168Z,6.30
2023-11-18T23:59:50.914Z,5.53
